Time;durP1;ratioP1;P1;durP2;ratioP2;P2;SDS_P1;SDS_P2;PMS_P1;PMS_P2;Temp;Humidity;BMP_temperature;BMP_pressure;BME280_temperature;BME280_humidity;BME280_pressure;Samples;Min_cycle;Max_cycle;Signal;HPM_P1;HPM_P2
2022/03/16 00:01:00;;;;;;;204.23;68.07;;;;;;;;;;5094806;28;20358;-74
2022/03/16 00:03:26;;;;;;;193.93;66.82;;;;;;;;;;5095260;28;20355;-75
2022/03/16 00:05:54;;;;;;;201.57;68.30;;;;;;;;;;5095173;28;20371;-74
2022/03/16 00:08:20;;;;;;;175.82;65.63;;;;;;;;;;5095099;28;20024;-74
2022/03/16 00:10:46;;;;;;;366.70;83.70;;;;;;;;;;5094867;28;20027;-74
2022/03/16 00:13:12;;;;;;;249.30;70.45;;;;;;;;;;5077356;28;20162;-74
2022/03/16 00:15:39;;;;;;;268.63;77.60;;;;;;;;;;5095920;28;20470;-74
2022/03/16 00:18:05;;;;;;;232.05;74.43;;;;;;;;;;5095377;28;20036;-74
2022/03/16 00:20:31;;;;;;;229.13;70.35;;;;;;;;;;5089559;28;20419;-74
2022/03/16 00:22:58;;;;;;;287.27;80.18;;;;;;;;;;5094642;28;20385;-74
2022/03/16 00:25:26;;;;;;;230.18;71.35;;;;;;;;;;5095694;28;20049;-75
2022/03/16 00:27:52;;;;;;;243.32;75.60;;;;;;;;;;5094952;28;20024;-74
2022/03/16 00:30:18;;;;;;;274.10;83.22;;;;;;;;;;5092717;28;20032;-75
2022/03/16 00:32:45;;;;;;;281.73;80.95;;;;;;;;;;5093199;28;20036;-74
2022/03/16 00:35:11;;;;;;;287.08;83.97;;;;;;;;;;5092319;28;20145;-74
2022/03/16 00:37:37;;;;;;;274.52;81.95;;;;;;;;;;5092730;28;20036;-74
2022/03/16 00:40:04;;;;;;;322.95;95.68;;;;;;;;;;5092044;28;20516;-74
2022/03/16 00:42:31;;;;;;;308.77;92.72;;;;;;;;;;5092150;28;20078;-74
2022/03/16 00:44:57;;;;;;;363.42;100.07;;;;;;;;;;5092010;28;20509;-75
2022/03/16 00:47:23;;;;;;;203.25;72.72;;;;;;;;;;5092012;28;20111;-75
2022/03/16 00:49:50;;;;;;;262.10;83.18;;;;;;;;;;5073101;28;20019;-75
2022/03/16 00:52:16;;;;;;;260.65;83.70;;;;;;;;;;5090194;28;20412;-75
2022/03/16 00:54:42;;;;;;;249.05;79.63;;;;;;;;;;5084333;28;20020;-75
2022/03/16 00:57:08;;;;;;;233.55;78.55;;;;;;;;;;5092698;28;20024;-75
2022/03/16 00:59:35;;;;;;;251.57;84.20;;;;;;;;;;5092382;28;20525;-74
2022/03/16 01:02:01;;;;;;;243.43;79.88;;;;;;;;;;5073135;28;20024;-74
2022/03/16 01:04:27;;;;;;;261.33;81.43;;;;;;;;;;5090682;28;20039;-75
2022/03/16 01:06:53;;;;;;;225.82;79.97;;;;;;;;;;5091159;28;20020;-74
2022/03/16 01:09:20;;;;;;;245.70;85.47;;;;;;;;;;5093344;28;20047;-75
2022/03/16 01:11:47;;;;;;;240.07;83.00;;;;;;;;;;5092398;28;20027;-75
2022/03/16 01:14:13;;;;;;;218.13;76.03;;;;;;;;;;5087379;28;20108;-75
2022/03/16 01:16:39;;;;;;;217.63;76.55;;;;;;;;;;5092462;28;20110;-74
2022/03/16 01:19:06;;;;;;;200.65;72.63;;;;;;;;;;5084500;28;20467;-75
2022/03/16 01:21:33;;;;;;;220.52;74.80;;;;;;;;;;5093458;28;20386;-75
2022/03/16 01:23:59;;;;;;;221.95;72.15;;;;;;;;;;5093342;28;20028;-74
2022/03/16 01:26:26;;;;;;;221.65;72.85;;;;;;;;;;5093660;28;20028;-75
2022/03/16 01:28:52;;;;;;;238.13;75.85;;;;;;;;;;5075315;28;20058;-74
2022/03/16 01:31:19;;;;;;;196.60;64.72;;;;;;;;;;5094563;28;20097;-75
2022/03/16 01:33:45;;;;;;;186.38;62.60;;;;;;;;;;5092993;28;20028;-75
2022/03/16 01:36:11;;;;;;;197.82;63.30;;;;;;;;;;5092387;28;20032;-76
2022/03/16 01:38:38;;;;;;;193.88;63.55;;;;;;;;;;5092769;28;20036;-76
2022/03/16 01:41:04;;;;;;;192.13;62.15;;;;;;;;;;5092833;28;20514;-76
2022/03/16 01:43:30;;;;;;;169.13;58.97;;;;;;;;;;5093101;28;20050;-75
2022/03/16 01:45:57;;;;;;;182.52;61.85;;;;;;;;;;5085099;28;20032;-74
2022/03/16 01:48:23;;;;;;;187.40;61.38;;;;;;;;;;5080727;28;20540;-75
2022/03/16 01:50:49;;;;;;;168.52;60.75;;;;;;;;;;5084347;28;20062;-75
2022/03/16 01:53:16;;;;;;;186.68;60.53;;;;;;;;;;5087370;28;20028;-75
2022/03/16 01:55:43;;;;;;;179.75;58.92;;;;;;;;;;5085616;28;20029;-75
2022/03/16 01:58:10;;;;;;;175.00;59.35;;;;;;;;;;5087634;28;20023;-75
2022/03/16 02:00:37;;;;;;;152.52;57.20;;;;;;;;;;5082544;28;20054;-75
2022/03/16 02:03:03;;;;;;;160.48;58.00;;;;;;;;;;5084751;28;20063;-76
2022/03/16 02:05:29;;;;;;;157.80;56.20;;;;;;;;;;5070321;28;20487;-74
2022/03/16 02:07:57;;;;;;;150.70;53.35;;;;;;;;;;5088536;28;20112;-75
2022/03/16 02:10:23;;;;;;;136.50;54.08;;;;;;;;;;5087043;28;20039;-75
2022/03/16 02:12:50;;;;;;;133.82;51.47;;;;;;;;;;5083604;28;20025;-75
2022/03/16 02:15:17;;;;;;;158.43;56.13;;;;;;;;;;5083194;28;20025;-75
2022/03/16 02:17:44;;;;;;;131.43;54.05;;;;;;;;;;5069079;28;20466;-75
2022/03/16 02:20:10;;;;;;;143.02;54.10;;;;;;;;;;5086096;28;20028;-75
2022/03/16 02:22:42;;;;;;;147.85;57.08;;;;;;;;;;5087150;28;20028;-75
2022/03/16 02:25:09;;;;;;;128.90;54.53;;;;;;;;;;5066967;28;20032;-75
2022/03/16 02:27:39;;;;;;;144.45;59.00;;;;;;;;;;5084658;28;20032;-75
2022/03/16 02:30:05;;;;;;;160.55;59.60;;;;;;;;;;5086316;28;20036;-76
2022/03/16 02:32:31;;;;;;;147.68;62.78;;;;;;;;;;5086610;28;20026;-74
2022/03/16 02:34:58;;;;;;;152.88;64.82;;;;;;;;;;5088472;28;20458;-75
2022/03/16 02:37:24;;;;;;;152.23;63.28;;;;;;;;;;5088362;28;20050;-75
2022/03/16 02:39:51;;;;;;;153.32;65.20;;;;;;;;;;5083540;28;20025;-74
2022/03/16 02:42:18;;;;;;;165.98;65.22;;;;;;;;;;5087459;28;20036;-75
2022/03/16 02:44:45;;;;;;;169.10;67.70;;;;;;;;;;5085759;28;20050;-76
2022/03/16 02:47:11;;;;;;;149.90;68.25;;;;;;;;;;5090784;28;20032;-76
2022/03/16 02:49:37;;;;;;;173.20;74.55;;;;;;;;;;5064977;28;20032;-75
2022/03/16 02:52:08;;;;;;;167.35;77.38;;;;;;;;;;5083280;28;20144;-76
2022/03/16 02:54:34;;;;;;;184.25;80.00;;;;;;;;;;5065389;28;20036;-75
2022/03/16 02:57:00;;;;;;;174.95;77.25;;;;;;;;;;5088918;28;20032;-75
2022/03/16 02:59:27;;;;;;;164.88;76.30;;;;;;;;;;5087506;28;20032;-76
2022/03/16 03:01:53;;;;;;;169.30;79.38;;;;;;;;;;5083639;28;20028;-76
2022/03/16 03:04:20;;;;;;;187.00;79.97;;;;;;;;;;5083825;28;20060;-76
2022/03/16 03:06:46;;;;;;;185.43;81.47;;;;;;;;;;5087061;28;20040;-78
2022/03/16 03:09:13;;;;;;;178.77;83.25;;;;;;;;;;5076507;28;20055;-77
2022/03/16 03:11:40;;;;;;;171.18;80.85;;;;;;;;;;5083572;28;20074;-77
2022/03/16 03:14:06;;;;;;;177.10;81.75;;;;;;;;;;5084216;28;20040;-76
2022/03/16 03:16:35;;;;;;;177.32;78.57;;;;;;;;;;5090157;28;20404;-76
2022/03/16 03:19:01;;;;;;;192.90;79.85;;;;;;;;;;5065670;28;20043;-76
2022/03/16 03:21:27;;;;;;;188.93;86.45;;;;;;;;;;5086371;28;20409;-76
2022/03/16 03:23:54;;;;;;;197.85;86.90;;;;;;;;;;5070143;28;20069;-76
2022/03/16 03:26:20;;;;;;;186.88;84.53;;;;;;;;;;5088666;28;20756;-75
2022/03/16 03:28:46;;;;;;;196.45;82.35;;;;;;;;;;5084190;28;20382;-77
2022/03/16 03:31:12;;;;;;;207.68;86.55;;;;;;;;;;5087233;28;20024;-76
2022/03/16 03:33:39;;;;;;;224.43;86.57;;;;;;;;;;5083210;28;20067;-76
2022/03/16 03:36:07;;;;;;;209.10;85.55;;;;;;;;;;5085827;28;20040;-76
2022/03/16 03:38:34;;;;;;;198.68;87.18;;;;;;;;;;5061133;28;20047;-76
2022/03/16 03:41:00;;;;;;;189.73;82.28;;;;;;;;;;5079816;28;20058;-77
2022/03/16 03:43:26;;;;;;;196.57;86.80;;;;;;;;;;5084521;28;20056;-76
2022/03/16 03:45:53;;;;;;;181.70;85.47;;;;;;;;;;5085700;28;20044;-76
2022/03/16 03:48:19;;;;;;;180.52;83.90;;;;;;;;;;5081916;28;20090;-77
2022/03/16 03:51:07;;;;;;;206.68;84.68;;;;;;;;;;5083345;28;20082;-79
2022/03/16 03:53:34;;;;;;;186.15;78.97;;;;;;;;;;5069985;28;20565;-77
2022/03/16 03:56:06;;;;;;;202.93;84.38;;;;;;;;;;5085815;28;20066;-77
2022/03/16 03:58:55;;;;;;;186.73;78.05;;;;;;;;;;5084442;28;20445;-76
2022/03/16 04:01:25;;;;;;;183.45;81.55;;;;;;;;;;5051187;28;20052;-78
2022/03/16 04:04:23;;;;;;;166.40;75.05;;;;;;;;;;5061272;28;20050;-77
2022/03/16 04:06:50;;;;;;;168.52;73.15;;;;;;;;;;5077095;28;20474;-76
2022/03/16 04:09:16;;;;;;;156.60;73.90;;;;;;;;;;5064235;28;20036;-76
2022/03/16 04:11:42;;;;;;;164.93;74.97;;;;;;;;;;5089734;28;20035;-78
2022/03/16 04:14:10;;;;;;;150.55;74.85;;;;;;;;;;5088338;28;20032;-77
2022/03/16 04:16:36;;;;;;;160.20;76.47;;;;;;;;;;5092540;28;20034;-77
2022/03/16 04:19:03;;;;;;;156.73;70.38;;;;;;;;;;5070907;28;20032;-77
2022/03/16 04:21:29;;;;;;;145.02;73.65;;;;;;;;;;5090471;28;20028;-77
2022/03/16 04:23:56;;;;;;;142.23;69.05;;;;;;;;;;5087937;28;20034;-77
2022/03/16 04:26:22;;;;;;;142.40;71.22;;;;;;;;;;5088097;28;20036;-77
2022/03/16 04:28:48;;;;;;;148.48;73.22;;;;;;;;;;5084512;28;20035;-77
2022/03/16 04:31:24;;;;;;;156.45;73.07;;;;;;;;;;5084300;28;20054;-77
2022/03/16 04:33:50;;;;;;;141.32;67.15;;;;;;;;;;5089408;28;20517;-76
2022/03/16 04:36:31;;;;;;;124.57;58.22;;;;;;;;;;5085642;28;20481;-77
2022/03/16 04:38:58;;;;;;;146.38;69.05;;;;;;;;;;5083768;28;20449;-76
2022/03/16 04:41:24;;;;;;;150.27;71.40;;;;;;;;;;5082870;28;20157;-77
2022/03/16 04:43:53;;;;;;;127.85;67.00;;;;;;;;;;5082792;28;20044;-77
2022/03/16 04:46:19;;;;;;;117.90;61.60;;;;;;;;;;5078519;28;20426;-77
2022/03/16 04:48:46;;;;;;;112.43;58.42;;;;;;;;;;5083427;28;20035;-76
2022/03/16 04:51:12;;;;;;;114.38;59.50;;;;;;;;;;5086070;28;20253;-77
2022/03/16 04:53:39;;;;;;;129.95;61.95;;;;;;;;;;5083932;28;20453;-77
2022/03/16 04:56:05;;;;;;;126.85;64.78;;;;;;;;;;5083166;28;20029;-77
2022/03/16 04:58:32;;;;;;;130.50;62.00;;;;;;;;;;5063930;28;20040;-76
2022/03/16 05:00:59;;;;;;;117.95;58.90;;;;;;;;;;5085462;28;20027;-77
2022/03/16 05:03:25;;;;;;;126.10;60.95;;;;;;;;;;5084340;28;20033;-77
2022/03/16 05:06:04;;;;;;;120.80;59.22;;;;;;;;;;5082991;28;20032;-76
2022/03/16 05:08:45;;;;;;;121.25;61.60;;;;;;;;;;5080343;28;20024;-76
2022/03/16 05:11:24;;;;;;;124.85;64.00;;;;;;;;;;5081147;28;20143;-77
2022/03/16 05:13:56;;;;;;;137.20;65.90;;;;;;;;;;5079711;28;20047;-77
2022/03/16 05:16:34;;;;;;;126.80;64.30;;;;;;;;;;5082696;28;20039;-77
2022/03/16 05:19:00;;;;;;;131.73;57.75;;;;;;;;;;5080555;28;20038;-77
2022/03/16 05:21:26;;;;;;;104.25;57.92;;;;;;;;;;5085046;28;20035;-77
2022/03/16 05:23:52;;;;;;;106.05;55.45;;;;;;;;;;5083803;28;20028;-77
2022/03/16 05:26:19;;;;;;;109.72;58.05;;;;;;;;;;5083740;28;20099;-77
2022/03/16 05:28:45;;;;;;;114.65;58.03;;;;;;;;;;5083957;28;20058;-78
2022/03/16 05:31:12;;;;;;;121.65;60.17;;;;;;;;;;5078387;28;20463;-77
2022/03/16 05:33:38;;;;;;;118.63;57.92;;;;;;;;;;5079218;28;20490;-77
2022/03/16 05:36:04;;;;;;;118.30;60.58;;;;;;;;;;5081029;28;20405;-78
2022/03/16 05:38:31;;;;;;;106.30;57.22;;;;;;;;;;5063922;28;20071;-77
2022/03/16 05:40:57;;;;;;;111.07;57.40;;;;;;;;;;5081209;28;20437;-76
2022/03/16 05:43:23;;;;;;;107.40;56.85;;;;;;;;;;5083280;28;20486;-78
2022/03/16 05:45:50;;;;;;;104.45;53.72;;;;;;;;;;5079648;28;20052;-77
2022/03/16 05:48:17;;;;;;;96.15;53.25;;;;;;;;;;5062581;28;20035;-77
2022/03/16 05:50:45;;;;;;;92.32;52.15;;;;;;;;;;5062283;28;20101;-78
2022/03/16 05:53:11;;;;;;;93.15;49.90;;;;;;;;;;5080498;28;20106;-77
2022/03/16 05:55:38;;;;;;;90.22;48.95;;;;;;;;;;5077465;28;20492;-77
2022/03/16 05:58:04;;;;;;;99.35;49.53;;;;;;;;;;5081899;28;20036;-76
2022/03/16 06:00:31;;;;;;;101.53;52.83;;;;;;;;;;5077035;28;20043;-78
2022/03/16 06:02:58;;;;;;;93.43;51.00;;;;;;;;;;5079589;28;20039;-77
2022/03/16 06:05:24;;;;;;;100.22;52.78;;;;;;;;;;5078727;28;20032;-77
2022/03/16 06:07:51;;;;;;;87.65;47.78;;;;;;;;;;5078283;28;20025;-77
2022/03/16 06:10:18;;;;;;;89.40;49.25;;;;;;;;;;5078694;28;20489;-77
2022/03/16 06:12:55;;;;;;;93.28;48.88;;;;;;;;;;5077786;28;20131;-77
2022/03/16 06:15:22;;;;;;;83.32;46.72;;;;;;;;;;5077072;28;20400;-77
2022/03/16 06:17:48;;;;;;;79.60;44.88;;;;;;;;;;5078725;28;20028;-77
2022/03/16 06:20:15;;;;;;;90.95;48.00;;;;;;;;;;5082673;28;20028;-76
2022/03/16 06:22:41;;;;;;;84.95;46.72;;;;;;;;;;5079329;28;20032;-78
2022/03/16 06:25:07;;;;;;;87.97;47.28;;;;;;;;;;5079611;28;20032;-77
2022/03/16 06:27:34;;;;;;;81.95;45.00;;;;;;;;;;5079199;28;20024;-76
2022/03/16 06:30:01;;;;;;;79.07;43.20;;;;;;;;;;5079418;28;20622;-78
2022/03/16 06:32:28;;;;;;;74.20;43.92;;;;;;;;;;5079185;28;20034;-76
2022/03/16 06:34:54;;;;;;;84.93;44.78;;;;;;;;;;5082441;28;20036;-76
2022/03/16 06:37:20;;;;;;;86.90;49.38;;;;;;;;;;5080876;28;20038;-78
2022/03/16 06:39:53;;;;;;;86.57;46.88;;;;;;;;;;5079361;28;20391;-78
2022/03/16 06:42:19;;;;;;;86.05;47.97;;;;;;;;;;5078724;28;20493;-77
2022/03/16 06:44:45;;;;;;;86.85;47.83;;;;;;;;;;5077236;28;20044;-78
2022/03/16 06:47:12;;;;;;;96.22;50.17;;;;;;;;;;5078755;28;20033;-78
2022/03/16 06:49:38;;;;;;;89.95;46.70;;;;;;;;;;5082094;28;20361;-77
2022/03/16 06:52:05;;;;;;;87.10;46.90;;;;;;;;;;5079816;28;20036;-78
2022/03/16 06:54:31;;;;;;;87.30;47.97;;;;;;;;;;5077819;28;20188;-78
2022/03/16 06:56:57;;;;;;;88.72;47.00;;;;;;;;;;5075752;28;20043;-78
2022/03/16 06:59:23;;;;;;;89.45;47.97;;;;;;;;;;5077058;28;20103;-77
2022/03/16 07:01:50;;;;;;;75.95;41.92;;;;;;;;;;5076603;28;20492;-77
2022/03/16 07:04:16;;;;;;;85.78;43.58;;;;;;;;;;5075072;28;20367;-78
2022/03/16 07:06:43;;;;;;;83.38;47.58;;;;;;;;;;5077594;28;20091;-77
2022/03/16 07:09:09;;;;;;;87.03;46.08;;;;;;;;;;5076859;28;20028;-76
2022/03/16 07:11:35;;;;;;;84.63;44.47;;;;;;;;;;5058911;28;20386;-76
2022/03/16 07:16:46;;;;;;;87.88;47.70;;;;;;;;;;5071776;28;20509;-78
2022/03/16 07:19:12;;;;;;;76.60;41.80;;;;;;;;;;5071863;28;20040;-76
2022/03/16 07:21:39;;;;;;;82.53;42.55;;;;;;;;;;5076500;28;20028;-77
2022/03/16 07:24:06;;;;;;;81.15;44.92;;;;;;;;;;5079827;28;20473;-79
2022/03/16 07:26:32;;;;;;;85.00;45.42;;;;;;;;;;5076595;28;20036;-77
2022/03/16 07:28:58;;;;;;;77.07;41.95;;;;;;;;;;5071610;28;20454;-78
2022/03/16 07:31:25;;;;;;;80.45;45.30;;;;;;;;;;5073584;28;20069;-76
2022/03/16 07:34:21;;;;;;;94.22;47.35;;;;;;;;;;5072940;28;20036;-79
2022/03/16 07:36:47;;;;;;;81.45;45.22;;;;;;;;;;4995658;28;20043;-77
2022/03/16 07:39:36;;;;;;;79.40;43.05;;;;;;;;;;5082407;28;20028;-77
2022/03/16 07:42:02;;;;;;;76.15;43.25;;;;;;;;;;5063361;28;20119;-77
2022/03/16 07:44:28;;;;;;;70.63;41.78;;;;;;;;;;5080236;28;20468;-76
2022/03/16 07:46:54;;;;;;;68.95;40.08;;;;;;;;;;5084560;28;20020;-76
2022/03/16 07:49:21;;;;;;;75.47;42.10;;;;;;;;;;5086221;28;20039;-77
2022/03/16 07:51:47;;;;;;;75.38;40.33;;;;;;;;;;5088300;28;20060;-77
2022/03/16 07:54:13;;;;;;;74.70;42.25;;;;;;;;;;5068070;28;20059;-76
2022/03/16 07:56:40;;;;;;;69.03;38.78;;;;;;;;;;5084992;28;20032;-77
2022/03/16 07:59:06;;;;;;;74.03;41.92;;;;;;;;;;5077306;28;20751;-76
2022/03/16 08:01:33;;;;;;;69.85;39.00;;;;;;;;;;5082007;28;20069;-78
2022/03/16 08:03:59;;;;;;;71.95;39.97;;;;;;;;;;5083013;28;20052;-77
2022/03/16 08:06:25;;;;;;;73.85;42.30;;;;;;;;;;5081954;28;20103;-78
2022/03/16 08:08:53;;;;;;;82.03;42.65;;;;;;;;;;5079883;28;20024;-77
2022/03/16 08:11:19;;;;;;;68.53;41.20;;;;;;;;;;5082709;28;20032;-76
2022/03/16 08:13:45;;;;;;;77.28;43.67;;;;;;;;;;5084589;28;21543;-77
2022/03/16 08:16:15;;;;;;;80.32;42.72;;;;;;;;;;5080224;28;20403;-76
2022/03/16 08:18:41;;;;;;;63.33;38.30;;;;;;;;;;5083177;28;20358;-77
2022/03/16 08:21:07;;;;;;;63.08;36.70;;;;;;;;;;5064597;28;20111;-78
2022/03/16 08:23:34;;;;;;;59.90;34.72;;;;;;;;;;5067925;28;20024;-77
2022/03/16 08:26:00;;;;;;;63.15;36.28;;;;;;;;;;5082493;28;20077;-76
2022/03/16 08:28:29;;;;;;;68.75;37.97;;;;;;;;;;5080481;28;20089;-76
2022/03/16 08:30:56;;;;;;;61.17;37.40;;;;;;;;;;5085738;28;20027;-77
2022/03/16 08:33:23;;;;;;;62.53;37.03;;;;;;;;;;5078902;28;20427;-76
2022/03/16 08:35:50;;;;;;;58.88;36.47;;;;;;;;;;5082383;28;20059;-77
2022/03/16 08:38:16;;;;;;;66.70;36.83;;;;;;;;;;5084754;28;20489;-76
2022/03/16 08:40:43;;;;;;;66.55;39.80;;;;;;;;;;5083401;28;20032;-75
2022/03/16 08:43:10;;;;;;;58.50;35.35;;;;;;;;;;5079887;28;20036;-77
2022/03/16 08:45:36;;;;;;;56.25;35.60;;;;;;;;;;5083678;28;21505;-77
2022/03/16 08:48:03;;;;;;;53.53;34.38;;;;;;;;;;5085426;28;20282;-76
2022/03/16 08:50:30;;;;;;;57.13;35.22;;;;;;;;;;5083157;28;20545;-76
2022/03/16 08:52:57;;;;;;;100.47;60.05;;;;;;;;;;5087691;28;20409;-77
2022/03/16 08:55:26;;;;;;;66.78;39.70;;;;;;;;;;5081132;28;20024;-76
2022/03/16 08:57:57;;;;;;;84.78;47.42;;;;;;;;;;5084156;28;20042;-77
2022/03/16 09:00:24;;;;;;;67.05;40.15;;;;;;;;;;5085755;28;20047;-76
2022/03/16 09:02:50;;;;;;;60.13;38.17;;;;;;;;;;5085514;28;20032;-77
2022/03/16 09:05:17;;;;;;;63.03;39.10;;;;;;;;;;5088995;28;20056;-76
2022/03/16 09:07:44;;;;;;;63.42;37.22;;;;;;;;;;5081434;28;20347;-76
2022/03/16 09:10:10;;;;;;;69.43;40.95;;;;;;;;;;5084942;28;20024;-76
2022/03/16 09:12:37;;;;;;;66.88;40.58;;;;;;;;;;5085523;28;20031;-75
2022/03/16 09:15:06;;;;;;;64.53;38.85;;;;;;;;;;5088199;28;20470;-77
2022/03/16 09:17:40;;;;;;;71.50;40.78;;;;;;;;;;5090329;28;20062;-77
2022/03/16 09:20:19;;;;;;;59.17;36.55;;;;;;;;;;5079520;28;20040;-76
2022/03/16 09:22:45;;;;;;;65.82;38.60;;;;;;;;;;5064371;28;20101;-77
2022/03/16 09:25:12;;;;;;;61.97;36.00;;;;;;;;;;5083977;28;20016;-76
2022/03/16 09:27:38;;;;;;;69.57;40.83;;;;;;;;;;5068722;28;20024;-75
2022/03/16 09:30:05;;;;;;;61.00;38.67;;;;;;;;;;5087151;28;20020;-76
2022/03/16 09:32:33;;;;;;;67.78;39.92;;;;;;;;;;5083773;28;20035;-76
2022/03/16 09:35:05;;;;;;;72.30;39.88;;;;;;;;;;5088835;28;20067;-77
2022/03/16 09:37:32;;;;;;;61.38;38.13;;;;;;;;;;5086016;28;20390;-77
2022/03/16 09:39:58;;;;;;;66.13;39.85;;;;;;;;;;5080000;28;20119;-76
2022/03/16 09:42:25;;;;;;;66.13;40.63;;;;;;;;;;5087059;28;20035;-76
2022/03/16 09:44:55;;;;;;;74.95;42.22;;;;;;;;;;5082454;28;20040;-76
2022/03/16 09:47:22;;;;;;;66.60;41.60;;;;;;;;;;5083087;28;20505;-76
2022/03/16 09:49:48;;;;;;;64.72;40.58;;;;;;;;;;5065268;28;20729;-78
2022/03/16 09:52:15;;;;;;;64.70;40.92;;;;;;;;;;5080667;28;20016;-77
2022/03/16 09:54:41;;;;;;;62.58;40.60;;;;;;;;;;5077714;28;20166;-78
2022/03/16 09:57:10;;;;;;;64.90;40.97;;;;;;;;;;5075514;28;20028;-78
2022/03/16 09:59:38;;;;;;;66.00;41.30;;;;;;;;;;5077166;28;20032;-78
2022/03/16 10:02:09;;;;;;;67.95;40.85;;;;;;;;;;5083014;28;20028;-77
2022/03/16 10:04:37;;;;;;;65.05;40.45;;;;;;;;;;5081803;28;20028;-77
2022/03/16 10:07:05;;;;;;;67.90;41.75;;;;;;;;;;5086121;28;20016;-78
2022/03/16 10:15:05;;;;;;;66.63;42.20;;;;;;;;;;5080705;28;20070;-77
2022/03/16 10:17:44;;;;;;;64.60;41.72;;;;;;;;;;5084996;28;20039;-77
2022/03/16 10:20:26;;;;;;;63.40;40.33;;;;;;;;;;5080296;28;20495;-76
2022/03/16 10:22:54;;;;;;;59.25;37.65;;;;;;;;;;5084473;28;20027;-77
2022/03/16 10:25:20;;;;;;;56.05;34.17;;;;;;;;;;5085697;28;20097;-77
2022/03/16 10:27:46;;;;;;;52.97;31.58;;;;;;;;;;5088529;28;20429;-77
2022/03/16 10:30:13;;;;;;;47.15;30.25;;;;;;;;;;5088397;28;20074;-77
2022/03/16 10:32:40;;;;;;;42.30;27.52;;;;;;;;;;5085826;28;20017;-77
2022/03/16 10:35:06;;;;;;;46.22;27.20;;;;;;;;;;5083821;28;20013;-76
2022/03/16 10:37:35;;;;;;;41.42;27.13;;;;;;;;;;5084784;28;20036;-76
2022/03/16 10:40:05;;;;;;;40.85;24.35;;;;;;;;;;5082203;28;20413;-76
2022/03/16 10:48:19;;;;;;;41.17;25.15;;;;;;;;;;5081702;28;20039;-76
2022/03/16 10:50:46;;;;;;;37.80;25.25;;;;;;;;;;5080939;28;20733;-77
2022/03/16 10:53:17;;;;;;;41.92;26.63;;;;;;;;;;5083926;28;20114;-77
2022/03/16 10:55:44;;;;;;;41.65;25.23;;;;;;;;;;5082338;28;20377;-77
2022/03/16 10:58:13;;;;;;;38.70;25.02;;;;;;;;;;5081595;28;20518;-75
2022/03/16 11:00:42;;;;;;;45.78;27.77;;;;;;;;;;5086285;28;20470;-78
2022/03/16 11:03:15;;;;;;;35.97;24.27;;;;;;;;;;5080831;28;21432;-78
2022/03/16 11:05:42;;;;;;;35.28;23.30;;;;;;;;;;5090447;28;20093;-76
2022/03/16 11:08:09;;;;;;;34.42;24.15;;;;;;;;;;5087069;28;20028;-76
2022/03/16 11:10:39;;;;;;;35.38;21.17;;;;;;;;;;5091406;28;20027;-76
2022/03/16 11:15:51;;;;;;;31.50;20.23;;;;;;;;;;5088641;28;20043;-76
2022/03/16 11:18:23;;;;;;;31.42;21.25;;;;;;;;;;5074189;28;20031;-76
2022/03/16 11:20:50;;;;;;;32.53;21.13;;;;;;;;;;5088136;28;20024;-76
2022/03/16 11:26:06;;;;;;;31.63;19.92;;;;;;;;;;5093350;28;20038;-77
2022/03/16 11:28:50;;;;;;;31.20;19.50;;;;;;;;;;5093860;28;20020;-77
2022/03/16 11:31:16;;;;;;;34.00;20.23;;;;;;;;;;5090137;28;20076;-78
2022/03/16 11:33:52;;;;;;;35.45;22.58;;;;;;;;;;5086777;28;20024;-76
2022/03/16 11:36:49;;;;;;;34.08;21.70;;;;;;;;;;5068079;28;20036;-76
2022/03/16 11:39:16;;;;;;;38.58;23.67;;;;;;;;;;5073111;28;20650;-77
2022/03/16 11:41:49;;;;;;;39.92;24.98;;;;;;;;;;5090335;28;20081;-77
2022/03/16 11:44:28;;;;;;;35.88;25.15;;;;;;;;;;5088173;28;20085;-78
2022/03/16 11:46:54;;;;;;;38.45;24.35;;;;;;;;;;5086899;28;20028;-76
2022/03/16 11:49:30;;;;;;;43.47;26.15;;;;;;;;;;5087274;28;20051;-78
2022/03/16 11:52:12;;;;;;;44.38;29.58;;;;;;;;;;5086037;28;20100;-77
2022/03/16 11:54:45;;;;;;;44.97;28.88;;;;;;;;;;5066248;28;20024;-77
2022/03/16 11:57:11;;;;;;;43.95;28.70;;;;;;;;;;5084161;28;20107;-77
2022/03/16 11:59:47;;;;;;;44.70;31.48;;;;;;;;;;5084270;28;20016;-79
2022/03/16 12:02:29;;;;;;;47.63;28.02;;;;;;;;;;5090761;28;20023;-77
2022/03/16 12:05:01;;;;;;;41.35;28.63;;;;;;;;;;5088541;28;20028;-79
2022/03/16 12:07:30;;;;;;;41.70;28.40;;;;;;;;;;5086486;28;20027;-76
2022/03/16 12:10:00;;;;;;;46.33;31.48;;;;;;;;;;5067479;28;20119;-76
2022/03/16 12:12:51;;;;;;;46.60;29.88;;;;;;;;;;5087426;28;20024;-78
2022/03/16 12:15:33;;;;;;;51.20;36.75;;;;;;;;;;5083875;28;20482;-77
2022/03/16 12:17:59;;;;;;;51.25;36.97;;;;;;;;;;5085021;28;20025;-77
2022/03/16 12:20:27;;;;;;;60.00;35.78;;;;;;;;;;5091294;28;20035;-77
2022/03/16 12:22:55;;;;;;;48.20;32.10;;;;;;;;;;5087844;28;20359;-76
2022/03/16 12:25:27;;;;;;;43.85;30.13;;;;;;;;;;5085827;28;20413;-76
2022/03/16 12:30:39;;;;;;;43.75;29.65;;;;;;;;;;5092784;28;20063;-76
2022/03/16 12:33:05;;;;;;;52.03;30.88;;;;;;;;;;5092036;28;20028;-76
2022/03/16 12:35:36;;;;;;;48.95;29.90;;;;;;;;;;5086027;28;20020;-75
2022/03/16 12:38:02;;;;;;;46.85;30.70;;;;;;;;;;5084855;28;20016;-77
2022/03/16 12:40:29;;;;;;;44.85;28.15;;;;;;;;;;5087025;28;20016;-77
2022/03/16 12:42:56;;;;;;;46.15;28.73;;;;;;;;;;5090128;28;20023;-76
2022/03/16 12:45:28;;;;;;;48.10;28.88;;;;;;;;;;5092272;28;20046;-76
2022/03/16 12:48:12;;;;;;;47.33;29.80;;;;;;;;;;5088459;28;20021;-77
2022/03/16 12:50:44;;;;;;;41.72;27.83;;;;;;;;;;5090031;28;20036;-76
2022/03/16 12:53:10;;;;;;;53.40;31.13;;;;;;;;;;5084544;28;20032;-77
2022/03/16 12:55:36;;;;;;;53.15;32.08;;;;;;;;;;5085390;28;20035;-77
2022/03/16 12:58:03;;;;;;;55.70;33.80;;;;;;;;;;5087043;28;20333;-77
2022/03/16 13:00:38;;;;;;;59.10;34.63;;;;;;;;;;5083123;28;20023;-75
2022/03/16 13:03:15;;;;;;;61.28;36.63;;;;;;;;;;5082959;28;20032;-75
2022/03/16 13:05:41;;;;;;;58.25;37.45;;;;;;;;;;5085525;28;20032;-77
2022/03/16 13:08:08;;;;;;;60.72;36.75;;;;;;;;;;5088620;28;20397;-76
2022/03/16 13:11:14;;;;;;;62.03;39.30;;;;;;;;;;5084343;28;20032;-76
2022/03/16 13:13:22;;;;;;;65.47;42.10;;;;;;;;;;5081371;28;20457;-76
2022/03/16 13:15:50;;;;;;;67.88;44.92;;;;;;;;;;5081987;28;20029;-75
2022/03/16 13:18:32;;;;;;;72.75;43.80;;;;;;;;;;5065579;28;20136;-77
2022/03/16 13:20:59;;;;;;;63.80;42.50;;;;;;;;;;5081146;28;20327;-77
2022/03/16 13:23:33;;;;;;;75.72;44.72;;;;;;;;;;5063354;28;20470;-76
2022/03/16 13:26:11;;;;;;;68.13;43.22;;;;;;;;;;5083521;28;20028;-75
2022/03/16 13:28:40;;;;;;;70.90;43.92;;;;;;;;;;5085329;28;20052;-76
2022/03/16 13:31:07;;;;;;;73.75;46.45;;;;;;;;;;5083965;28;20534;-75
2022/03/16 13:33:34;;;;;;;75.10;47.10;;;;;;;;;;5086023;28;20066;-76
2022/03/16 13:36:10;;;;;;;74.90;48.20;;;;;;;;;;5083366;28;20374;-76
2022/03/16 13:38:37;;;;;;;76.63;48.03;;;;;;;;;;5083646;28;20028;-77
2022/03/16 13:41:15;;;;;;;71.13;44.28;;;;;;;;;;5085979;28;21421;-77
2022/03/16 13:43:41;;;;;;;66.50;45.78;;;;;;;;;;5068679;28;20513;-77
2022/03/16 13:46:14;;;;;;;67.38;44.58;;;;;;;;;;5067121;28;20047;-75
2022/03/16 13:48:42;;;;;;;67.15;44.92;;;;;;;;;;5083012;28;20043;-77
2022/03/16 13:51:11;;;;;;;72.15;45.70;;;;;;;;;;5084285;28;20032;-76
2022/03/16 13:53:47;;;;;;;66.65;43.97;;;;;;;;;;5083138;28;20489;-76
2022/03/16 13:56:23;;;;;;;69.72;44.15;;;;;;;;;;5079833;28;20028;-75
2022/03/16 13:58:54;;;;;;;71.20;43.40;;;;;;;;;;5080413;28;20036;-78
2022/03/16 14:01:21;;;;;;;72.53;45.15;;;;;;;;;;5063378;28;20458;-75
2022/03/16 14:03:48;;;;;;;69.43;43.30;;;;;;;;;;5080838;28;20028;-75
2022/03/16 14:06:15;;;;;;;71.43;44.72;;;;;;;;;;5077319;28;20036;-77
2022/03/16 14:08:41;;;;;;;72.82;47.08;;;;;;;;;;5080088;28;20036;-75
2022/03/16 14:11:10;;;;;;;75.50;47.08;;;;;;;;;;5081746;28;20032;-77
2022/03/16 14:13:41;;;;;;;77.53;44.33;;;;;;;;;;5079815;28;20051;-76
2022/03/16 14:16:10;;;;;;;77.88;47.40;;;;;;;;;;5077889;28;20029;-76
2022/03/16 14:18:36;;;;;;;75.90;47.28;;;;;;;;;;5082581;28;20074;-77
2022/03/16 14:21:03;;;;;;;74.78;45.72;;;;;;;;;;5084302;28;20489;-76
2022/03/16 14:23:30;;;;;;;75.65;46.60;;;;;;;;;;5088301;28;20034;-76
2022/03/16 14:25:58;;;;;;;72.03;46.20;;;;;;;;;;5067488;28;20028;-76
2022/03/16 14:28:24;;;;;;;74.25;45.90;;;;;;;;;;5089708;28;20040;-76
2022/03/16 14:30:53;;;;;;;69.55;43.03;;;;;;;;;;5089589;28;20031;-75
2022/03/16 14:33:23;;;;;;;69.32;39.90;;;;;;;;;;5084025;28;20416;-76
2022/03/16 14:35:50;;;;;;;68.38;41.75;;;;;;;;;;5090871;28;20374;-77
2022/03/16 14:38:20;;;;;;;67.20;41.67;;;;;;;;;;5092486;28;20508;-76
2022/03/16 14:40:56;;;;;;;72.07;42.95;;;;;;;;;;5084596;28;20032;-76